Map

Track Data

SID SEASON NUMBER BASIN SUBBASIN NAME ISO_TIME NATURE LAT LON WMO_WIND WMO_PRES WMO_AGENCY TRACK_TYPE DIST2LAND LANDFALL IFLAG USA_AGENCY USA_ATCF_ID USA_LAT USA_LON USA_RECORD USA_STATUS USA_WIND USA_PRES USA_SSHS USA_R34_NE USA_R34_SE USA_R34_SW USA_R34_NW USA_R50_NE USA_R50_SE USA_R50_SW USA_R50_NW USA_R64_NE USA_R64_SE USA_R64_SW USA_R64_NW USA_POCI USA_ROCI USA_RMW USA_EYE TOKYO_LAT TOKYO_LON TOKYO_GRADE TOKYO_WIND TOKYO_PRES TOKYO_R50_DIR TOKYO_R50_LONG TOKYO_R50_SHORT TOKYO_R30_DIR TOKYO_R30_LONG TOKYO_R30_SHORT TOKYO_LAND CMA_LAT CMA_LON CMA_CAT CMA_WIND CMA_PRES HKO_LAT HKO_LON HKO_CAT HKO_WIND HKO_PRES NEWDELHI_LAT NEWDELHI_LON NEWDELHI_GRADE NEWDELHI_WIND NEWDELHI_PRES NEWDELHI_CI NEWDELHI_DP NEWDELHI_POCI REUNION_LAT REUNION_LON REUNION_TYPE REUNION_WIND REUNION_PRES REUNION_TNUM REUNION_CI REUNION_RMW REUNION_R34_NE REUNION_R34_SE REUNION_R34_SW REUNION_R34_NW REUNION_R50_NE REUNION_R50_SE REUNION_R50_SW REUNION_R50_NW REUNION_R64_NE REUNION_R64_SE REUNION_R64_SW REUNION_R64_NW BOM_LAT BOM_LON BOM_TYPE BOM_WIND BOM_PRES BOM_TNUM BOM_CI BOM_RMW BOM_R34_NE BOM_R34_SE BOM_R34_SW BOM_R34_NW BOM_R50_NE BOM_R50_SE BOM_R50_SW BOM_R50_NW BOM_R64_NE BOM_R64_SE BOM_R64_SW BOM_R64_NW BOM_ROCI BOM_POCI BOM_EYE BOM_POS_METHOD BOM_PRES_METHOD NADI_LAT NADI_LON NADI_CAT NADI_WIND NADI_PRES WELLINGTON_LAT WELLINGTON_LON WELLINGTON_WIND WELLINGTON_PRES DS824_LAT DS824_LON DS824_STAGE DS824_WIND DS824_PRES TD9636_LAT TD9636_LON TD9636_STAGE TD9636_WIND TD9636_PRES TD9635_LAT TD9635_LON TD9635_WIND TD9635_PRES TD9635_ROCI NEUMANN_LAT NEUMANN_LON NEUMANN_CLASS NEUMANN_WIND NEUMANN_PRES MLC_LAT MLC_LON MLC_CLASS MLC_WIND MLC_PRES USA_GUST BOM_GUST BOM_GUST_PER REUNION_GUST REUNION_GUST_PER USA_SEAHGT USA_SEARAD_NE USA_SEARAD_SE USA_SEARAD_SW USA_SEARAD_NW STORM_SPEED STORM_DIR
1972249N24281 1972 90 NA NA DAWN 1972-09-05 00:00:00 TS 23.8000 -79.4000 30 hurdat_atl main 117 112 O_____________ hurdat_atl AL131972 23.8000 -79.4000 TD 30 -1 8 310
1972249N24281 1972 90 NA NA DAWN 1972-09-05 03:00:00 TS 24.0426 -79.7123 main 126 98 P_____________ AL131972 24.0426 -79.7123 TD 30 -1 7 312
1972249N24281 1972 90 NA NA DAWN 1972-09-05 06:00:00 TS 24.3000 -80.0000 30 hurdat_atl main 98 59 O_____________ hurdat_atl AL131972 24.3000 -80.0000 TD 30 -1 7 319
1972249N24281 1972 90 NA NA DAWN 1972-09-05 09:00:00 TS 24.5850 -80.2375 main 59 22 P_____________ AL131972 24.5850 -80.2375 TD 30 -1 7 329
1972249N24281 1972 90 NA NA DAWN 1972-09-05 12:00:00 TS 24.9000 -80.4000 30 hurdat_atl main 22 0 O_____________ hurdat_atl AL131972 24.9000 -80.4000 TD 30 -1 7 339
1972249N24281 1972 90 NA GM DAWN 1972-09-05 15:00:00 TS 25.2499 -80.5248 main 0 0 P_____________ AL131972 25.2499 -80.5248 TD 30 -1 7 353
1972249N24281 1972 90 NA NA DAWN 1972-09-05 18:00:00 TS 25.6000 -80.5000 30 1007 hurdat_atl main 0 0 O_____________ hurdat_atl AL131972 25.6000 -80.5000 TD 30 1007 -1 7 19
1972249N24281 1972 90 NA NA DAWN 1972-09-05 21:00:00 TS 25.9075 -80.2751 main 0 0 P_____________ AL131972 25.9075 -80.2751 TD 30 -1 8 42
1972249N24281 1972 90 NA NA DAWN 1972-09-06 00:00:00 TS 26.2000 -79.9000 30 hurdat_atl main 19 19 O_____________ hurdat_atl AL131972 26.2000 -79.9000 TD 30 -1 9 50
1972249N24281 1972 90 NA NA DAWN 1972-09-06 03:00:00 TS 26.5074 -79.4874 main 59 59 P_____________ AL131972 26.5074 -79.4874 TD 30 -1 10 53
1972249N24281 1972 90 NA NA DAWN 1972-09-06 06:00:00 TS 26.8000 -79.0000 30 hurdat_atl main 99 99 O_____________ hurdat_atl AL131972 26.8000 -79.0000 TD 30 -1 10 59
1972249N24281 1972 90 NA NA DAWN 1972-09-06 09:00:00 TS 27.0266 -78.5236 main 150 150 P_____________ AL131972 27.0266 -78.5236 TD 35 0 11 63
1972249N24281 1972 90 NA NA DAWN 1972-09-06 12:00:00 TS 27.3000 -77.9000 40 hurdat_atl main 215 215 O_____________ hurdat_atl AL131972 27.3000 -77.9000 TS 40 0 15 63
1972249N24281 1972 90 NA NA DAWN 1972-09-06 15:00:00 TS 27.7134 -76.9880 main 306 306 P_____________ AL131972 27.7134 -76.9880 TS 45 0 19 62
1972249N24281 1972 90 NA NA DAWN 1972-09-06 18:00:00 TS 28.2000 -76.0000 50 1005 hurdat_atl main 399 399 O_____________ hurdat_atl AL131972 28.2000 -76.0000 TS 50 1005 0 19 58
1972249N24281 1972 90 NA NA DAWN 1972-09-06 21:00:00 TS 28.6916 -75.1766 main 488 488 P_____________ AL131972 28.6916 -75.1766 TS 52 1004 0 17 55
1972249N24281 1972 90 NA NA DAWN 1972-09-07 00:00:00 TS 29.2000 -74.4000 55 hurdat_atl main 579 579 I_____________ hurdat_atl AL131972 29.2000 -74.4000 TS 55 1003 0 17 55
1972249N24281 1972 90 NA NA DAWN 1972-09-07 03:00:00 TS 29.6396 -73.5977 main 630 608 P_____________ AL131972 29.6396 -73.5977 TS 55 1002 0 17 54
1972249N24281 1972 90 NA NA DAWN 1972-09-07 06:00:00 TS 30.2000 -72.8000 55 1001 hurdat_atl main 609 588 O_____________ hurdat_atl AL131972 30.2000 -72.8000 TS 55 1001 0 20 46
1972249N24281 1972 90 NA NA DAWN 1972-09-07 09:00:00 TS 31.0405 -71.9417 main 595 571 P_____________ AL131972 31.0405 -71.9417 TS 57 0 23 37
1972249N24281 1972 90 NA NA DAWN 1972-09-07 12:00:00 TS 32.0000 -71.2000 60 hurdat_atl main 572 545 O_____________ hurdat_atl AL131972 32.0000 -71.2000 TS 60 0 22 30
1972249N24281 1972 90 NA NA DAWN 1972-09-07 15:00:00 TS 32.9294 -70.6503 main 545 515 P_____________ AL131972 32.9294 -70.6503 TS 62 0 19 20
1972249N24281 1972 90 NA NA DAWN 1972-09-07 18:00:00 TS 33.8000 -70.4000 65 hurdat_atl main 515 476 O_____________ hurdat_atl AL131972 33.8000 -70.4000 HU 65 1 17 5
1972249N24281 1972 90 NA NA DAWN 1972-09-07 21:00:00 TS 34.5747 -70.4854 main 472 429 P_____________ AL131972 34.5747 -70.4854 HU 67 1 14 347
1972249N24281 1972 90 NA NA DAWN 1972-09-08 00:00:00 TS 35.2000 -70.8000 70 998 hurdat_atl main 429 396 O_____________ hurdat_atl AL131972 35.2000 -70.8000 HU 70 998 1 12 335
1972249N24281 1972 90 NA NA DAWN 1972-09-08 03:00:00 TS 35.6749 -71.1126 main 396 360 P_____________ AL131972 35.6749 -71.1126 HU 70 997 1 10 325
1972249N24281 1972 90 NA NA DAWN 1972-09-08 06:00:00 TS 36.0000 -71.5000 70 hurdat_atl main 360 326 I_____________ hurdat_atl AL131972 36.0000 -71.5000 HU 70 997 1 9 311
1972249N24281 1972 90 NA NA DAWN 1972-09-08 09:00:00 TS 36.2448 -71.9204 main 326 285 P_____________ AL131972 36.2448 -71.9204 HU 70 997 1 8 299
1972249N24281 1972 90 NA NA DAWN 1972-09-08 12:00:00 TS 36.4000 -72.4000 70 997 hurdat_atl main 285 245 O_____________ hurdat_atl AL131972 36.4000 -72.4000 HU 70 997 1 9 291
1972249N24281 1972 90 NA NA DAWN 1972-09-08 15:00:00 TS 36.5678 -72.9644 main 240 199 P_____________ AL131972 36.5678 -72.9644 HU 67 997 1 9 283
1972249N24281 1972 90 NA NA DAWN 1972-09-08 18:00:00 TS 36.6000 -73.5000 65 hurdat_atl main 199 158 I_____________ hurdat_atl AL131972 36.6000 -73.5000 HU 65 998 1 8 258
1972249N24281 1972 90 NA NA DAWN 1972-09-08 21:00:00 TS 36.4023 -73.9108 main 158 121 P_____________ AL131972 36.4023 -73.9108 HU 62 999 0 8 228
1972249N24281 1972 90 NA NA DAWN 1972-09-09 00:00:00 TS 36.1000 -74.2000 60 1000 hurdat_atl main 121 99 O_____________ hurdat_atl AL131972 36.1000 -74.2000 TS 60 1000 0 7 217
1972249N24281 1972 90 NA NA DAWN 1972-09-09 03:00:00 TS 35.8574 -74.4251 main 99 89 P_____________ AL131972 35.8573 -74.4251 TS 55 1001 0 6 206
1972249N24281 1972 90 NA NA DAWN 1972-09-09 06:00:00 TS 35.6000 -74.5000 50 hurdat_atl main 92 92 I_____________ hurdat_atl AL131972 35.6000 -74.5000 TS 50 1002 0 6 178
1972249N24281 1972 90 NA NA DAWN 1972-09-09 09:00:00 TS 35.2775 -74.3944 main 113 113 P_____________ AL131972 35.2775 -74.3944 TS 47 1003 0 6 158
1972249N24281 1972 90 NA NA DAWN 1972-09-09 12:00:00 TS 35.0000 -74.2000 45 1005 hurdat_atl main 147 147 O_____________ hurdat_atl AL131972 35.0000 -74.2000 TS 45 1005 0 4 146
1972249N24281 1972 90 NA NA DAWN 1972-09-09 15:00:00 TS 34.9072 -74.0958 main 161 161 P_____________ AL131972 34.9072 -74.0958 TS 45 0 3 129
1972249N24281 1972 90 NA NA DAWN 1972-09-09 18:00:00 TS 34.8000 -73.9000 45 hurdat_atl main 182 182 O_____________ hurdat_atl AL131972 34.8000 -73.9000 TS 45 0 7 130
1972249N24281 1972 90 NA NA DAWN 1972-09-09 21:00:00 TS 34.4878 -73.4869 main 232 232 P_____________ AL131972 34.4878 -73.4869 TS 45 0 10 133
1972249N24281 1972 90 NA NA DAWN 1972-09-10 00:00:00 TS 34.1000 -73.0000 45 hurdat_atl main 295 295 O_____________ hurdat_atl AL131972 34.1000 -73.0000 TS 45 0 11 134
1972249N24281 1972 90 NA NA DAWN 1972-09-10 03:00:00 TS 33.7351 -72.5549 main 353 353 P_____________ AL131972 33.7351 -72.5549 TS 45 0 10 136
1972249N24281 1972 90 NA NA DAWN 1972-09-10 06:00:00 TS 33.4000 -72.2000 45 hurdat_atl main 402 402 O_____________ hurdat_atl AL131972 33.4000 -72.2000 TS 45 0 7 141
1972249N24281 1972 90 NA NA DAWN 1972-09-10 09:00:00 TS 33.1648 -71.9980 main 431 431 P_____________ AL131972 33.1648 -71.9980 TS 45 0 6 153
1972249N24281 1972 90 NA NA DAWN 1972-09-10 12:00:00 TS 32.9000 -71.9000 45 hurdat_atl main 460 460 O_____________ hurdat_atl AL131972 32.9000 -71.9000 TS 45 0 7 167
1972249N24281 1972 90 NA NA DAWN 1972-09-10 15:00:00 TS 32.4725 -71.8047 main 494 494 P_____________ AL131972 32.4725 -71.8047 TS 45 0 9 175
1972249N24281 1972 90 NA NA DAWN 1972-09-10 18:00:00 TS 32.0000 -71.8000 45 hurdat_atl main 527 527 O_____________ hurdat_atl AL131972 32.0000 -71.8000 TS 45 0 9 184
1972249N24281 1972 90 NA NA DAWN 1972-09-10 21:00:00 TS 31.5697 -71.8674 main 549 549 P_____________ AL131972 31.5697 -71.8674 TS 45 0 8 198
1972249N24281 1972 90 NA NA DAWN 1972-09-11 00:00:00 TS 31.2000 -72.1000 45 hurdat_atl main 565 556 O_____________ hurdat_atl AL131972 31.2000 -72.1000 TS 45 0 9 222
1972249N24281 1972 90 NA NA DAWN 1972-09-11 03:00:00 TS 30.9278 -72.5475 main 564 543 P_____________ AL131972 30.9278 -72.5475 TS 42 0 10 240
1972249N24281 1972 90 NA NA DAWN 1972-09-11 06:00:00 TS 30.7000 -73.1000 40 1007 hurdat_atl main 547 541 O_____________ hurdat_atl AL131972 30.7000 -73.1000 TS 40 1007 0 10 241
1972249N24281 1972 90 NA NA DAWN 1972-09-11 09:00:00 TS 30.4198 -73.6002 main 550 546 P_____________ AL131972 30.4198 -73.6002 TS 40 0 10 240
1972249N24281 1972 90 NA NA DAWN 1972-09-11 12:00:00 TS 30.2000 -74.1000 40 hurdat_atl main 549 531 O_____________ hurdat_atl AL131972 30.2000 -74.1000 TS 40 0 9 250
1972249N24281 1972 90 NA NA DAWN 1972-09-11 15:00:00 TS 30.1122 -74.5921 main 531 504 P_____________ AL131972 30.1122 -74.5921 TS 40 0 9 263
1972249N24281 1972 90 NA NA DAWN 1972-09-11 18:00:00 TS 30.1000 -75.1000 40 hurdat_atl main 504 480 O_____________ hurdat_atl AL131972 30.1000 -75.1000 TS 40 0 9 268
1972249N24281 1972 90 NA NA DAWN 1972-09-11 21:00:00 TS 30.0850 -75.6575 main 475 443 P_____________ AL131972 30.0850 -75.6575 TS 40 0 10 270
1972249N24281 1972 90 NA NA DAWN 1972-09-12 00:00:00 TS 30.1000 -76.2000 40 hurdat_atl main 443 417 O_____________ hurdat_atl AL131972 30.1000 -76.2000 TS 40 0 9 272
1972249N24281 1972 90 NA NA DAWN 1972-09-12 03:00:00 TS 30.1122 -76.6654 main 409 379 P_____________ AL131972 30.1122 -76.6654 TS 37 0 8 277
1972249N24281 1972 90 NA NA DAWN 1972-09-12 06:00:00 TS 30.2000 -77.1000 35 1014 hurdat_atl main 379 340 O_____________ hurdat_atl AL131972 30.2000 -77.1000 TS 35 1014 0 8 293
1972249N24281 1972 90 NA NA DAWN 1972-09-12 09:00:00 TS 30.4349 -77.5571 main 334 283 P_____________ AL131972 30.4349 -77.5571 TS 35 0 9 303
1972249N24281 1972 90 NA NA DAWN 1972-09-12 12:00:00 TS 30.7000 -78.0000 35 hurdat_atl main 283 242 O_____________ hurdat_atl AL131972 30.7000 -78.0000 TS 35 0 9 303
1972249N24281 1972 90 NA NA DAWN 1972-09-12 15:00:00 TS 30.9022 -78.3999 main 242 211 P_____________ AL131972 30.9022 -78.3999 TS 32 -1 7 294
1972249N24281 1972 90 NA NA DAWN 1972-09-12 18:00:00 TS 31.0000 -78.8000 30 hurdat_atl main 211 195 O_____________ hurdat_atl AL131972 31.0000 -78.8000 TD 30 -1 7 272
1972249N24281 1972 90 NA NA DAWN 1972-09-12 21:00:00 TS 30.9224 -79.2431 main 195 162 P_____________ AL131972 30.9224 -79.2431 TD 30 -1 8 255
1972249N24281 1972 90 NA NA DAWN 1972-09-13 00:00:00 TS 30.8000 -79.7000 30 hurdat_atl main 162 114 O_____________ hurdat_atl AL131972 30.8000 -79.7000 TD 30 -1 8 259
1972249N24281 1972 90 NA NA DAWN 1972-09-13 03:00:00 TS 30.7627 -80.1875 main 114 76 P_____________ AL131972 30.7627 -80.1875 TD 30 -1 8 270
1972249N24281 1972 90 NA NA DAWN 1972-09-13 06:00:00 TS 30.8000 -80.6000 30 hurdat_atl main 76 47 O_____________ hurdat_atl AL131972 30.8000 -80.6000 TD 30 -1 6 284
1972249N24281 1972 90 NA NA DAWN 1972-09-13 09:00:00 TS 30.9048 -80.8673 main 47 36 P_____________ AL131972 30.9048 -80.8673 TD 30 -1 5 311
1972249N24281 1972 90 NA NA DAWN 1972-09-13 12:00:00 TS 31.1000 -81.0000 30 hurdat_atl main 36 18 O_____________ hurdat_atl AL131972 31.1000 -81.0000 TD 30 -1 5 342
1972249N24281 1972 90 NA NA DAWN 1972-09-13 15:00:00 TS 31.4074 -81.0600 main 18 14 P_____________ AL131972 31.4074 -81.0600 TD 30 -1 6 1
1972249N24281 1972 90 NA NA DAWN 1972-09-13 18:00:00 TS 31.7000 -81.0000 30 hurdat_atl main 18 11 O_____________ hurdat_atl AL131972 31.7000 -81.0000 TD 30 -1 4 24
1972249N24281 1972 90 NA NA DAWN 1972-09-13 21:00:00 TS 31.8075 -80.8447 main 14 14 P_____________ AL131972 31.8075 -80.8447 TD 30 -1 4 60
1972249N24281 1972 90 NA NA DAWN 1972-09-14 00:00:00 TS 31.9000 -80.6000 30 hurdat_atl main 28 28 O_____________ hurdat_atl AL131972 31.9000 -80.6000 TD 30 -1 6 54
1972249N24281 1972 90 NA NA DAWN 1972-09-14 03:00:00 TS 32.1351 -80.3078 main 35 22 P_____________ AL131972 32.1351 -80.3078 TD 30 -1 7 45
1972249N24281 1972 90 NA NA DAWN 1972-09-14 06:00:00 TS 32.4000 -80.0000 30 hurdat_atl main 22 14 O_____________ hurdat_atl AL131972 32.4000 -80.0000 TD 30 -1 7 45
1972249N24281 1972 90 NA NA DAWN 1972-09-14 09:00:00 TS 32.6175 -79.7349 main 21 14 P_____________ AL131972 32.6175 -79.7349 TD 30 -1 6 46
1972249N24281 1972 90 NA NA DAWN 1972-09-14 12:00:00 TS 32.8000 -79.5000 30 hurdat_atl main 21 O_____________ hurdat_atl AL131972 32.8000 -79.5000 TD 30 -1 5 47

About IBTrACS Database

This database is a web-friendly format of International Best Track Archive for Climate Stewardship (IBTrACS), a global best track data archive curated by NOAA dating back to 1842.

Updated: 2021-10-08